Tiempo atmosférico en la estación meteorológica de Orozko, Bizkaia (270 m.)



Fecha
DESCASC
Temp. máxima en grados centígrados (hora)
DESCASC
Temp. mínima en grados centígrados (hora)
DESCASC
Temp. media en grados centígrados
DESCASC
Racha de viento máxima en m/sg (hora)
DESCASC
Velocidad máxima media en intervalos de 10 minutos(hora)
DESCASC
Precipitaciones diarias en mm
DESCASC
Precipitaciones de 00:00 a 06:00 en mm
DESCASC
Precipitaciones de 06:00 a 12:00 en mm
DESCASC
Precipitaciones de 12:00 a 18:00 en mm
DESCASC
Precipitaciones de 18:00 a 24:00 en mm
DESCASC
15-08-2019 23.6 (15:40) 14.8 (23:59) 19.2 6.39 (16:30) 1.94 (05:40) 1.6 1.2 0.4 0 0
14-08-2019 29.7 (14:50) 9.7 (00:00) 19.7 6.67 (16:40) 2.22 (15:40) 0 0 0 0 0
13-08-2019 24.1 (17:50) 11.5 (00:00) 17.8 5.56 (16:20) 1.67 (21:50) 0 0 0 0 0
12-08-2019 21.1 (14:30) 11.7 (00:00) 16.4 7.22 (16:40) 2.22 (12:10) 0 0 0 0 0
11-08-2019 22.3 (14:20) 14.8 (00:00) 18.5 7.5 (16:50) 2.5 (16:50) 10 2.2 7.2 0.6 0
10-08-2019 24 (14:10) 16.8 (00:00) 20.4 5.83 (17:30) 2.22 (17:30) 0.4 0 0.4 0 0
09-08-2019 31 (12:10) 18.5 (00:00) 24.8 13.89 (12:40) 4.17 (11:10) 0 0 0 0 0
08-08-2019 33.8 (18:00) 17.6 (00:00) 25.7 9.17 (15:30) 3.61 (09:20) 0 0 0 0 0
07-08-2019 29.8 (17:20) 16.7 (00:00) 23.3 4.17 (14:40) 1.67 (15:20) 0.6 0.4 0.2 0 0
06-08-2019 29.9 (16:10) 13.3 (00:00) 21.6 4.72 (19:10) 1.67 (19:10) 2.4 0 0 0 2.4
05-08-2019 27.8 (16:40) 13.7 (00:00) 20.7 5.83 (17:00) 1.94 (14:20) 0 0 0 0 0
04-08-2019 22.3 (14:00) 17.7 (00:00) 20 4.17 (17:10) 1.67 (17:30) 0 0 0 0 0
03-08-2019 31.7 (16:20) 12.5 (00:00) 22.1 6.39 (16:30) 1.94 (19:20) 0 0 0 0 0
02-08-2019 27.6 (17:30) 16.3 (00:00) 21.9 4.44 (13:50) 1.67 (22:10) 0.6 0.4 0.2 0 0
01-08-2019 21.4 (13:50) 16.1 (00:00) 18.8 6.39 (05:00) 3.61 (05:00) 6.2 5.6 0.4 0 0.2
31-07-2019 23.5 (15:00) 9.6 (00:00) 16.6 6.11 (13:00) 2.22 (13:00) 0 0 0 0 0
30-07-2019 21.6 (15:20) 13.7 (00:00) 17.7 6.67 (10:40) 2.78 (10:50) 0.2 0.2 0 0 0
29-07-2019 26.2 (12:30) 12.1 (00:00) 19.2 7.22 (13:00) 1.94 (12:40) 0.8 0 0 0 0.8
28-07-2019 25.8 (17:50) 13.6 (00:00) 19.7 5.28 (15:50) 1.67 (16:10) 1 0.8 0.2 0 0
27-07-2019 17.2 (15:40) 13.8 (00:00) 15.5 4.72 (19:10) 2.22 (19:10) 15 1.4 8.2 3 2.4
26-07-2019 19.6 (00:00) 15.8 (00:00) 17.7 5.28 (13:30) 1.67 (13:30) 23.8 4.6 5 12.8 1.4
25-07-2019 37.6 (15:00) 18.2 (00:00) 27.9 7.5 (14:50) 2.78 (14:50) 10.6 0 0 0 10.6
24-07-2019 40 (16:30) 17.1 (00:00) 28.6 7.78 (20:40) 3.61 (18:40) 0 0 0 0 0
23-07-2019 40.4 (17:30) 17.6 (00:00) 29 13.61 (09:30) 4.44 (10:10) 12.6 0 0 0 12.6
22-07-2019 37.1 (17:20) 18.6 (00:00) 27.8 6.11 (23:30) 2.22 (23:30) 0 0 0 0 0
21-07-2019 23.7 (17:00) 18.4 (00:00) 21.1 4.72 (16:30) 1.39 (18:00) 0 0 0 0 0
20-07-2019 27.5 (14:30) 16 (00:00) 21.8 5 (16:00) 2.22 (16:40) 0 0 0 0 0
19-07-2019 34.7 (16:40) 11 (00:00) 22.9 5.56 (17:00) 2.22 (17:10) 0 0 0 0 0

Gráficas

Temp. máximas Temp. mínimas Temp. medias Precipitaciones Rachas de viento máximas Velocidades máximas media en intervalos de 10 minutos

Datos horarios

Fecha y hora oficial Temperatura (ºC) Velocidad del viento (km/h) Dirección del viento Racha (km/h) Dirección de racha Precipitación (mm) Presión (hPa) Tendencia (hPa) Humedad (%)
2019-08-17 23:00:00 19 3 Sur 10 Sur 0 -- -- 80
2019-08-17 22:00:00 20.7 6 Sur 10 Sur 0 -- -- 74
2019-08-17 21:00:00 23.6 0 Calma 13 Este 0 -- -- 63
2019-08-17 20:00:00 26.1 4 Este 14 Sudeste 0 -- -- 56
2019-08-17 19:00:00 29.1 4 Sudeste 18 Nordeste 0 -- -- 46
2019-08-17 18:00:00 30.9 6 Sudeste 19 Sudeste 0 -- -- 42
2019-08-17 17:00:00 31.8 6 Sudeste 23 Sudeste 0 -- -- 40
2019-08-17 16:00:00 32 7 Sudeste 19 Sudeste 0 -- -- 38
2019-08-17 15:00:00 32.5 4 Sudeste 16 Este 0 -- -- 35
2019-08-17 14:00:00 32 5 Sudeste 17 Sudeste 0 -- -- 34
2019-08-17 13:00:00 29.9 4 Norte 10 Noroeste 0 -- -- 39
2019-08-17 12:00:00 26 0 Calma 7 Oeste 0 -- -- 44
2019-08-17 11:00:00 21.9 3 Norte 7 Sur 0 -- -- 59
2019-08-17 10:00:00 16.5 0 Calma 8 Sur 0 -- -- 87
2019-08-17 09:00:00 13.1 4 Sudoeste 9 Sur 0 -- -- 96
2019-08-17 08:00:00 11.9 0 Calma 3 Sur 0 -- -- 94
2019-08-17 07:00:00 12 0 Calma 5 Sur 0 -- -- 93
2019-08-17 06:00:00 12.2 0 Calma 6 Sur 0 -- -- 92
2019-08-17 05:00:00 12.5 2 Sudoeste 10 Sur 0 -- -- 91
2019-08-17 04:00:00 12.6 3 Sudoeste 6 Sudoeste 0 -- -- 89
2019-08-17 03:00:00 13.2 0 Calma 6 Sur 0 -- -- 87
2019-08-17 02:00:00 14 0 Calma 9 Sur 0 -- -- 85
2019-08-17 01:00:00 15 3 Sur 12 Sur 0 -- -- 83
2019-08-17 00:00:00 16 0 Calma 10 Sur 0 -- -- 82
2019-08-16 23:00:00 17.6 6 Sur 13 Sur 0 -- -- 75
2019-08-16 22:00:00 19.3 4 Sudoeste 14 Sudoeste 0 -- -- 70
2019-08-16 21:00:00 22.1 0 Calma 11 Nordeste 0 -- -- 61
2019-08-16 20:00:00 25 4 Este 15 Este 0 -- -- 49
2019-08-16 19:00:00 28.8 4 Este 11 Este 0 -- -- 39
2019-08-16 18:00:00 29.9 3 Este 15 Sudeste 0 -- -- 35
2019-08-16 17:00:00 30.1 4 Este 18 Este 0 -- -- 33
2019-08-16 16:00:00 30.2 6 Este 20 Sudeste 0 -- -- 42
2019-08-16 15:00:00 30.4 4 Este 19 Sudeste 0 -- -- 42
2019-08-16 14:00:00 29.3 4 Norte 8 Oeste 0 -- -- 42
2019-08-16 13:00:00 26.7 0 Calma 7 Oeste 0 -- -- 46
2019-08-16 12:00:00 22.9 0 Calma 6 Noroeste 0 -- -- 58
2019-08-16 11:00:00 18.3 0 Calma 5 Noroeste 0 -- -- 73
2019-08-16 10:00:00 13.2 3 Sudoeste 8 Sur 0 -- -- 90
2019-08-16 09:00:00 10.5 4 Sudoeste 8 Sur 0 -- -- 97
2019-08-16 08:00:00 9.8 4 Sur 9 Sur 0 -- -- 96
2019-08-16 07:00:00 10 0 Calma 9 Este 0 -- -- 95
2019-08-16 06:00:00 10.5 0 Calma 8 Sur 0 -- -- 95
2019-08-16 05:00:00 11.1 4 Sudoeste 6 Sur 0 -- -- 95
2019-08-16 04:00:00 11.7 0 Calma 5 Sudoeste 0 -- -- 94
2019-08-16 03:00:00 12.4 0 Calma 8 Sur 0 -- -- 94
2019-08-16 02:00:00 13 0 Calma 7 Sur 0 -- -- 93
2019-08-16 01:00:00 14 0 Calma 5 Sur 0 -- -- 90
2019-08-16 00:00:00 14.8 0 Calma 4 Sudeste 0 -- -- 89
2019-08-15 23:00:00 15.7 0 Calma 10 Sur 0 -- -- 85
2019-08-15 22:00:00 17.3 5 Sudoeste 7 Sur 0 -- -- 82
2019-08-15 21:00:00 19.3 0 Calma 5 Sudoeste 0 -- -- 74
2019-08-15 20:00:00 19.9 0 Calma 11 Sur 0 -- -- 70
2019-08-15 19:00:00 20.7 3 Sudeste 19 Sudeste 0 -- -- 68
2019-08-15 18:00:00 21.8 5 Sudeste 17 Este 0 -- -- 64
2019-08-15 17:00:00 22.6 5 Este 23 Este 0 -- -- 63
2019-08-15 16:00:00 22.8 4 Este 15 Sudeste 0 -- -- 65
2019-08-15 15:00:00 21.5 5 Sudeste 13 Sur 0 -- -- 70
2019-08-15 14:00:00 21.4 3 Oeste 11 Sudoeste 0 -- -- 68
2019-08-15 13:00:00 21 3 Oeste 10 Oeste 0 -- -- 71
2019-08-15 12:00:00 18.4 3 Sudoeste 8 Sudoeste 0 -- -- 89
2019-08-15 11:00:00 17.4 0 Calma 6 Oeste 0.4 -- -- 92
2019-08-15 10:00:00 17.1 3 Sudeste 11 Sudeste 0 -- -- 92
2019-08-15 09:00:00 16.9 0 Calma 6 Sudoeste 0 -- -- 96
2019-08-15 08:00:00 16.7 0 Calma 12 Sudeste 0 -- -- 95
2019-08-15 07:00:00 16.8 0 Calma 11 Este 0 -- -- 95
2019-08-15 06:00:00 17.3 4 Sur 18 Sudeste 0.4 -- -- 95
2019-08-15 05:00:00 18.1 0 Calma 9 Sudeste 0.6 -- -- 95
2019-08-15 04:00:00 18.2 0 Calma -- -- 0.2 -- -- 93
2019-08-15 03:00:00 18.5 0 Calma 3 Norte 0 -- -- 91
2019-08-15 02:00:00 18.9 0 Calma 6 Sur 0 -- -- 87
2019-08-15 01:00:00 19 0 Calma -- -- 0 -- -- 85
2019-08-15 00:00:00 19.3 0 Calma 6 Sudoeste 0 -- -- 83
2019-08-14 23:00:00 19.7 0 Calma 4 Sudeste 0 -- -- 80
2019-08-14 22:00:00 20.5 0 Calma 13 Este 0 -- -- 75
2019-08-14 21:00:00 21.7 3 Sudeste 16 Sudeste 0 -- -- 68
2019-08-14 20:00:00 23.4 3 Este 15 Sur 0 -- -- 57
2019-08-14 19:00:00 25.8 6 Sur 15 Sur 0 -- -- 47
2019-08-14 18:00:00 27 5 Sudeste 18 Este 0 -- -- 43
2019-08-14 17:00:00 27.9 6 Este 24 Nordeste 0 -- -- 43
2019-08-14 16:00:00 28.5 5 Este 19 Sudeste 0 -- -- 41
2019-08-14 15:00:00 29.5 5 Sudeste 18 Sur 0 -- -- 42
2019-08-14 14:00:00 28.5 4 Noroeste 13 Nordeste 0 -- -- 36
2019-08-14 13:00:00 26.6 4 Nordeste 10 Norte 0 -- -- 38
2019-08-14 12:00:00 23.4 2 Sudoeste 6 Sudoeste 0 -- -- 52
2019-08-14 11:00:00 19.2 0 Calma 5 Noroeste 0 -- -- 64
2019-08-14 10:00:00 14.4 0 Calma 6 Sur 0 -- -- 88
2019-08-14 09:00:00 11.2 3 Sur 6 Sur 0 -- -- 98
2019-08-14 08:00:00 9.8 0 Calma 5 Sur 0 -- -- 96
2019-08-14 07:00:00 9.8 0 Calma 6 Sur 0 -- -- 95
2019-08-14 06:00:00 10 2 Sudoeste 7 Sudoeste 0 -- -- 94
2019-08-14 05:00:00 10.5 0 Calma 8 Sudoeste 0 -- -- 95
2019-08-14 04:00:00 10.9 0 Calma 6 Sur 0 -- -- 94
2019-08-14 03:00:00 11.4 0 Calma 5 Sur 0 -- -- 93
2019-08-14 02:00:00 11.9 0 Calma 6 Sur 0 -- -- 93
2019-08-14 01:00:00 12.4 0 Calma 3 Sur 0 -- -- 90
2019-08-14 00:00:00 13.3 2 Sudeste 8 Sur 0 -- -- 88
2019-08-13 23:00:00 14.2 0 Calma 7 Sudoeste 0 -- -- 85
2019-08-13 22:00:00 15.7 4 Sur 13 Sur 0 -- -- 80
2019-08-13 21:00:00 18.2 4 Sudoeste 10 Nordeste 0 -- -- 71
2019-08-13 20:00:00 20.6 3 Este 10 Sur 0 -- -- 57
2019-08-13 19:00:00 22.6 5 Este 15 Este 0 -- -- 52
2019-08-13 18:00:00 24 5 Sudeste 17 Sur 0 -- -- 51
2019-08-13 17:00:00 23.2 5 Sudeste 20 Este 0 -- -- 52
2019-08-13 16:00:00 23.4 5 Sudeste 14 Nordeste 0 -- -- 49
2019-08-13 15:00:00 22.3 5 Este 14 Sudeste 0 -- -- 52
2019-08-13 14:00:00 23.2 6 Sudeste 14 Este 0 -- -- 53
2019-08-13 13:00:00 21.5 5 Sudeste 16 Sudeste 0 -- -- 57
2019-08-13 12:00:00 18.6 3 Este 8 Noroeste 0 -- -- 68
2019-08-13 11:00:00 16 0 Calma 4 Sudoeste 0 -- -- 83
2019-08-13 10:00:00 14.3 0 Calma 6 Sur 0 -- -- 91
2019-08-13 09:00:00 12.9 0 Calma -- -- 0 -- -- 98
2019-08-13 08:00:00 11.6 0 Calma -- -- 0 -- -- 97
2019-08-13 07:00:00 11.5 0 Calma -- -- 0 -- -- 97
2019-08-13 06:00:00 11.6 0 Calma -- -- 0 -- -- 96
2019-08-13 05:00:00 11.9 0 Calma -- -- 0 -- -- 96
2019-08-13 04:00:00 12.1 0 Calma -- -- 0 -- -- 96
2019-08-13 03:00:00 12.2 0 Calma 5 Sur 0 -- -- 94
2019-08-13 02:00:00 12.4 3 Sur 7 Sur 0 -- -- 93
2019-08-13 01:00:00 13.2 0 Calma 6 Sur 0 -- -- 90
2019-08-13 00:00:00 14.1 4 Sur 7 Sur 0 -- -- 89
2019-08-12 23:00:00 14.9 2 Sudeste 9 Sur 0 -- -- 84
2019-08-12 22:00:00 15.7 4 Sudoeste 8 Sur 0 -- -- 81
2019-08-12 21:00:00 16.6 0 Calma 10 Nordeste 0 -- -- 74
2019-08-12 20:00:00 17.4 3 Norte 14 Este 0 -- -- 71
2019-08-12 19:00:00 17.6 2 Norte 12 Noroeste 0 -- -- 70
2019-08-12 18:00:00 17.5 5 Nordeste 17 Este 0 -- -- 69
2019-08-12 17:00:00 18 7 Nordeste 26 Nordeste 0 -- -- 63
2019-08-12 16:00:00 18.9 2 Sudeste 13 Nordeste 0 -- -- 67
2019-08-12 15:00:00 20.1 3 Este 20 Este 0 -- -- 60
2019-08-12 14:00:00 19.9 3 Nordeste 18 Norte 0 -- -- 58
2019-08-12 13:00:00 20.5 7 Norte 24 Noroeste 0 -- -- 57
2019-08-12 12:00:00 19.4 8 Norte 21 Noroeste 0 -- -- 61
2019-08-12 11:00:00 16.1 4 Norte 14 Noroeste 0 -- -- 73
2019-08-12 10:00:00 14.8 4 Noroeste 9 Noroeste 0 -- -- 83
2019-08-12 09:00:00 12.9 0 Calma 9 Sur 0 -- -- 97
2019-08-12 08:00:00 11.7 3 Sur 6 Sudoeste 0 -- -- 96
2019-08-12 07:00:00 12.1 0 Calma 9 Sur 0 -- -- 95
2019-08-12 06:00:00 12.7 3 Sur 8 Sudoeste 0 -- -- 95
2019-08-12 05:00:00 13 0 Calma 6 Sur 0 -- -- 96
2019-08-12 04:00:00 13.2 0 Calma 7 Sur 0 -- -- 95
2019-08-12 03:00:00 13.4 0 Calma 5 Sur 0 -- -- 95
2019-08-12 02:00:00 13.8 5 Sur 10 Sur 0 -- -- 92
2019-08-12 01:00:00 14.4 4 Sudoeste 7 Sur 0 -- -- 91
2019-08-12 00:00:00 14.8 4 Sudoeste 9 Sur 0 -- -- 91
2019-08-11 23:00:00 15.4 2 Sur 8 Norte 0 -- -- 90
2019-08-11 22:00:00 16 0 Calma 8 Sudeste 0 -- -- 86
2019-08-11 21:00:00 16.5 0 Calma 15 Nordeste 0 -- -- 83
2019-08-11 20:00:00 17.6 2 Nordeste 10 Nordeste 0 -- -- 82
2019-08-11 19:00:00 17.6 4 Noroeste 15 Norte 0 -- -- 84
2019-08-11 18:00:00 17.6 5 Noroeste 15 Norte 0.6 -- -- 84
2019-08-11 17:00:00 18.6 7 Este 27 Sudeste 0 -- -- 78
2019-08-11 16:00:00 20.1 4 Sudoeste 18 Este 0 -- -- 75
2019-08-11 15:00:00 20.9 4 Este 14 Este 0 -- -- 70
2019-08-11 14:00:00 21.6 3 Sur 10 Oeste 0 -- -- 68
2019-08-11 13:00:00 18 2 Nordeste 7 Norte 0 -- -- 89
2019-08-11 12:00:00 17.1 0 Calma 0 Calma 0 -- -- 93
2019-08-11 11:00:00 16.4 0 Calma -- -- 0 -- -- 96
2019-08-11 10:00:00 15.8 0 Calma -- -- 0 -- -- 97
2019-08-11 09:00:00 15.5 0 Calma -- -- 0 -- -- 97
2019-08-11 08:00:00 15.4 0 Calma 0 Calma 1.8 -- -- 97
2019-08-11 07:00:00 15.8 0 Calma 0 Calma 5.4 -- -- 97
2019-08-11 06:00:00 15.8 0 Calma 7 Sudoeste 1.6 -- -- 96
2019-08-11 05:00:00 15.8 2 Sudoeste 13 Noroeste 0.6 -- -- 95
2019-08-11 04:00:00 16.1 0 Calma 9 Sudoeste 0 -- -- 93
2019-08-11 03:00:00 16.3 2 Sudeste 11 Sudoeste 0 -- -- 88
2019-08-11 02:00:00 16.6 2 Sur 12 Sudoeste 0 -- -- 85
2019-08-11 01:00:00 17 0 Calma 6 Sur 0 -- -- 84
2019-08-11 00:00:00 17.2 2 Sur 8 Sur 0 -- -- 84
2019-08-10 23:00:00 17.5 0 Calma 10 Este 0 -- -- 82
2019-08-10 22:00:00 18.4 4 Nordeste 13 Nordeste 0 -- -- 82
2019-08-10 21:00:00 19.1 3 Este 14 Este 0 -- -- 77
2019-08-10 20:00:00 19.7 4 Sudeste 14 Sudeste 0 -- -- 73
2019-08-10 19:00:00 20.7 4 Sur 15 Sur 0 -- -- 63
2019-08-10 18:00:00 21.3 3 Sudeste 21 Nordeste 0 -- -- 62
2019-08-10 17:00:00 21.9 5 Este 19 Nordeste 0 -- -- 60
2019-08-10 16:00:00 22.3 4 Sur 17 Nordeste 0 -- -- 60
2019-08-10 15:00:00 21.8 4 Sur 18 Sudeste 0 -- -- 64
2019-08-10 14:00:00 23.5 5 Sur 19 Sudoeste 0 -- -- 63
2019-08-10 13:00:00 22.9 5 Sur 15 Sudoeste 0 -- -- 64
2019-08-10 12:00:00 19.7 4 Sudoeste 17 Nordeste 0 -- -- 81
2019-08-10 11:00:00 19 2 Sur 6 Oeste 0 -- -- 89
2019-08-10 10:00:00 18.2 3 Sudoeste 8 Oeste 0.4 -- -- 95
2019-08-10 09:00:00 17.9 4 Este 11 Este 0 -- -- 93
2019-08-10 08:00:00 17.6 0 Calma 3 Sudoeste 0 -- -- 96
2019-08-10 07:00:00 17.1 0 Calma 7 Sur 0 -- -- 96
2019-08-10 06:00:00 16.8 0 Calma 9 Sur 0 -- -- 95
2019-08-10 05:00:00 17.1 0 Calma 4 Sudoeste 0 -- -- 93
2019-08-10 04:00:00 17.6 0 Calma 7 Sur 0 -- -- 93
2019-08-10 03:00:00 18 0 Calma 2 Oeste 0 -- -- 92
2019-08-10 02:00:00 18.5 0 Calma 3 Sudoeste 0 -- -- 91
2019-08-10 01:00:00 18.3 0 Calma 9 Sur 0 -- -- 91
2019-08-10 00:00:00 18.5 0 Calma 7 Sur 0 -- -- 88
2019-08-09 23:00:00 19.6 0 Calma 6 Sur 0 -- -- 86
2019-08-09 22:00:00 21.1 4 Sudoeste 9 Sudeste 0 -- -- 79
2019-08-09 21:00:00 22.8 4 Sur 10 Sudeste 0 -- -- 72
2019-08-09 20:00:00 25.2 3 Sudeste 22 Norte 0 -- -- 60
2019-08-09 19:00:00 28.8 5 Oeste 15 Norte 0 -- -- 42
2019-08-09 18:00:00 28.8 5 Noroeste 38 Sudoeste 0 -- -- 44
2019-08-09 17:00:00 27.6 8 Oeste 26 Oeste 0 -- -- 54
2019-08-09 16:00:00 27.1 13 Oeste 34 Oeste 0 -- -- 49
2019-08-09 15:00:00 27.2 10 Norte 31 Norte 0 -- -- 56
2019-08-09 14:00:00 27.4 10 Oeste 37 Norte 0 -- -- 57
2019-08-09 13:00:00 29.3 7 Norte 50 Oeste 0 -- -- 52
2019-08-09 12:00:00 30.5 11 Sudoeste 34 Oeste 0 -- -- 47
2019-08-09 11:00:00 29.1 11 Noroeste 32 Oeste 0 -- -- 53
2019-08-09 10:00:00 27.1 6 Nordeste 37 Sudoeste 0 -- -- 55
2019-08-09 09:00:00 25.7 11 Sudoeste 42 Sur 0 -- -- 56
2019-08-09 08:00:00 25.8 14 Sudoeste 48 Sur 0 -- -- 54
2019-08-09 07:00:00 25.7 5 Este 18 Sudeste 0 -- -- 53
2019-08-09 06:00:00 26.4 7 Este 24 Este 0 -- -- 51
2019-08-09 05:00:00 26.5 9 Este 26 Nordeste 0 -- -- 50
2019-08-09 04:00:00 26.4 5 Sudeste 32 Sudoeste 0 -- -- 53
2019-08-09 03:00:00 22.5 6 Sur 22 Oeste 0 -- -- 68
2019-08-09 02:00:00 22.1 5 Sudoeste 10 Sur 0 -- -- 71
2019-08-09 01:00:00 22.3 3 Sur 10 Oeste 0 -- -- 72
2019-08-09 00:00:00 22.3 4 Sudoeste 9 Sur 0 -- -- 75
2019-08-08 23:00:00 23.1 3 Sur 9 Sudoeste 0 -- -- 73
2019-08-08 22:00:00 25 2 Sudoeste 9 Sudoeste 0 -- -- 67
2019-08-08 21:00:00 27.4 3 Sur 10 Sur 0 -- -- 63
2019-08-08 20:00:00 29.4 4 Sur 12 Sudoeste 0 -- -- 57
2019-08-08 19:00:00 33.6 3 Sudoeste 32 Oeste 0 -- -- 37
2019-08-08 18:00:00 33.8 9 Sudoeste 24 Sudoeste 0 -- -- 41
2019-08-08 17:00:00 30.3 4 Sudoeste 18 Sudoeste 0 -- -- 52
2019-08-08 16:00:00 31.3 8 Oeste 33 Nordeste 0 -- -- 44
2019-08-08 15:00:00 32.1 7 Norte 24 Norte 0 -- -- 45
2019-08-08 14:00:00 31.5 7 Nordeste 26 Norte 0 -- -- 45
2019-08-08 13:00:00 30.1 4 Norte 30 Norte 0 -- -- 49
2019-08-08 12:00:00 28.4 6 Nordeste 32 Norte 0 -- -- 51
2019-08-08 11:00:00 26.8 4 Nordeste 18 Norte 0 -- -- 55
2019-08-08 10:00:00 25.1 6 Noroeste 33 Sudoeste 0 -- -- 60
2019-08-08 09:00:00 23.3 8 Sudoeste 33 Sur 0 -- -- 63
2019-08-08 08:00:00 22.6 4 Oeste 19 Norte 0 -- -- 67
2019-08-08 07:00:00 22.8 3 Oeste 30 Sudoeste 0 -- -- 64
2019-08-08 06:00:00 22.6 7 Oeste 22 Oeste 0 -- -- 62
2019-08-08 05:00:00 18.9 2 Sudeste 24 Oeste 0 -- -- 79
2019-08-08 04:00:00 17.7 2 Sudoeste 9 Sur 0 -- -- 90
2019-08-08 03:00:00 18.4 2 Sudoeste 9 Oeste 0 -- -- 89
2019-08-08 02:00:00 19.2 0 Calma 5 Sudeste 0 -- -- 88
2019-08-08 01:00:00 19.8 0 Calma 8 Sudoeste 0 -- -- 85
2019-08-08 00:00:00 20.4 0 Calma 8 Sudoeste 0 -- -- 84
2019-08-07 23:00:00 21.5 2 Sudoeste 8 Sur 0 -- -- 79
2019-08-07 22:00:00 22.7 2 Sudoeste 9 Sur 0 -- -- 81
2019-08-07 21:00:00 24.2 4 Sur 8 Sur 0 -- -- 77
2019-08-07 20:00:00 26.1 0 Calma 8 Sudeste 0 -- -- 67
2019-08-07 19:00:00 27.4 3 Este 12 Este 0 -- -- 60
2019-08-07 18:00:00 28.8 4 Sudeste 11 Sudeste 0 -- -- 57
2019-08-07 17:00:00 29 4 Sudeste 11 Sur 0 -- -- 53
2019-08-07 16:00:00 29.1 5 Sudeste 13 Sur 0 -- -- 53
2019-08-07 15:00:00 28.1 4 Sudeste 15 Sudeste 0 -- -- 56
2019-08-07 14:00:00 27.4 5 Nordeste 13 Este 0 -- -- 58
2019-08-07 13:00:00 25.6 4 Sudeste 12 Este 0 -- -- 65
2019-08-07 12:00:00 24.9 4 Sudeste 11 Sur 0 -- -- 67
2019-08-07 11:00:00 21.8 3 Norte 6 Norte 0 -- -- 83
2019-08-07 10:00:00 18.9 0 Calma 4 Nordeste 0 -- -- 98
2019-08-07 09:00:00 17.5 0 Calma 5 Sur 0 -- -- 99
2019-08-07 08:00:00 16.9 0 Calma 5 Oeste 0 -- -- 98
2019-08-07 07:00:00 16.9 0 Calma -- -- 0.2 -- -- 98
2019-08-07 06:00:00 17 0 Calma 8 Sur 0 -- -- 98
2019-08-07 05:00:00 17.1 0 Calma -- -- 0 -- -- 97
2019-08-07 04:00:00 17.2 0 Calma -- -- 0 -- -- 97
2019-08-07 03:00:00 17.4 0 Calma 6 Noroeste 0 -- -- 96
2019-08-07 02:00:00 17.7 2 Sur 6 Sur 0.4 -- -- 95
2019-08-07 01:00:00 18.1 0 Calma 11 Sudoeste 0 -- -- 95
2019-08-07 00:00:00 18.6 3 Oeste 10 Sur 2.2 -- -- 93
2019-08-06 23:00:00 19.4 3 Sudoeste 12 Sur 0.2 -- -- 87
2019-08-06 22:00:00 20.1 0 Calma 9 Sudoeste 0 -- -- 79
2019-08-06 21:00:00 20.9 4 Este 16 Este 0 -- -- 75
2019-08-06 20:00:00 22.5 2 Sur 17 Sudeste 0 -- -- 68
2019-08-06 19:00:00 24.2 6 Sur 14 Sur 0 -- -- 59
2019-08-06 18:00:00 25.3 5 Oeste 17 Nordeste 0 -- -- 56
2019-08-06 17:00:00 28 4 Este 15 Este 0 -- -- 58
2019-08-06 16:00:00 29.7 5 Sudeste 14 Nordeste 0 -- -- 49
2019-08-06 15:00:00 28.6 4 Sudeste 15 Sudeste 0 -- -- 57
2019-08-06 14:00:00 28 3 Sudeste 10 Oeste 0 -- -- 52
2019-08-06 13:00:00 25.6 3 Norte 8 Nordeste 0 -- -- 63
2019-08-06 12:00:00 24 3 Noroeste 6 Noroeste 0 -- -- 66
2019-08-06 11:00:00 21.2 3 Norte 8 Norte 0 -- -- 76
2019-08-06 10:00:00 18 0 Calma 4 Sur 0 -- -- 95
2019-08-06 09:00:00 14.8 3 Sur 10 Sur 0 -- -- 98
2019-08-06 08:00:00 13.3 0 Calma 7 Sur 0 -- -- 97
2019-08-06 07:00:00 13.4 0 Calma 6 Sur 0 -- -- 96
2019-08-06 06:00:00 13.7 0 Calma 8 Sur 0 -- -- 95
2019-08-06 05:00:00 14.2 0 Calma 8 Sur 0 -- -- 95
2019-08-06 04:00:00 14.7 0 Calma 8 Sur 0 -- -- 94
2019-08-06 03:00:00 15.2 0 Calma 8 Sur 0 -- -- 92
2019-08-06 02:00:00 15.9 0 Calma 8 Sur 0 -- -- 92
2019-08-06 01:00:00 16.5 0 Calma 6 Sur 0 -- -- 90
2019-08-06 00:00:00 17.4 0 Calma -- -- 0 -- -- 88
2019-08-05 23:00:00 18.7 0 Calma 7 Sudoeste 0 -- -- 83
2019-08-05 22:00:00 20.4 4 Sudoeste 12 Sudeste 0 -- -- 77
2019-08-05 21:00:00 22 4 Este 12 Sudeste 0 -- -- 70
2019-08-05 20:00:00 23.6 2 Sudeste 10 Sudeste 0 -- -- 69
2019-08-05 19:00:00 25.8 0 Calma 11 Sudeste 0 -- -- 63
2019-08-05 18:00:00 24.8 3 Este 15 Este 0 -- -- 67
2019-08-05 17:00:00 26.7 5 Este 21 Este 0 -- -- 60
2019-08-05 16:00:00 26.6 6 Este 15 Este 0 -- -- 60
2019-08-05 15:00:00 26.7 4 Sur 16 Sudoeste 0 -- -- 60
2019-08-05 14:00:00 24.5 6 Sudoeste 12 Sudoeste 0 -- -- 66
2019-08-05 13:00:00 22.1 4 Sudoeste 9 Sudoeste 0 -- -- 78
2019-08-05 12:00:00 21.3 3 Sudoeste 7 Oeste 0 -- -- 77
2019-08-05 11:00:00 19.3 0 Calma 5 Norte 0 -- -- 93
2019-08-05 10:00:00 16.7 0 Calma 3 Norte 0 -- -- 99
2019-08-05 09:00:00 14.7 0 Calma 4 Sudoeste 0 -- -- 98
2019-08-05 08:00:00 13.8 0 Calma 3 Sur 0 -- -- 97
2019-08-05 07:00:00 13.9 0 Calma 4 Sudoeste 0 -- -- 97
2019-08-05 06:00:00 14.1 0 Calma 6 Sur 0 -- -- 96
2019-08-05 05:00:00 14.2 0 Calma 5 Sur 0 -- -- 96
2019-08-05 04:00:00 14.4 0 Calma -- -- 0 -- -- 94
2019-08-05 03:00:00 15 0 Calma 4 Sur 0 -- -- 93
2019-08-05 02:00:00 15.7 3 Sur 8 Sudoeste 0 -- -- 92
2019-08-05 01:00:00 16.5 0 Calma -- -- 0 -- -- 90
2019-08-05 00:00:00 17.7 0 Calma 4 Sudeste 0 -- -- 87
2019-08-04 23:00:00 19 0 Calma 5 Sur 0 -- -- 86
2019-08-04 22:00:00 19.4 2 Sur 8 Noroeste 0 -- -- 83
2019-08-04 21:00:00 19.8 3 Norte 11 Sur 0 -- -- 80
2019-08-04 20:00:00 20.2 3 Este 10 Este 0 -- -- 81
2019-08-04 19:00:00 21.1 0 Calma 13 Sur 0 -- -- 80
2019-08-04 18:00:00 21.8 4 Sudeste 15 Sudeste 0 -- -- 78
2019-08-04 17:00:00 22.2 5 Sur 13 Sudeste 0 -- -- 76
2019-08-04 16:00:00 22.1 2 Sudeste 11 Sur 0 -- -- 78
2019-08-04 15:00:00 22 3 Sudeste 7 Nordeste 0 -- -- 76
2019-08-04 14:00:00 22.3 2 Sur 6 Sur 0 -- -- 73
2019-08-04 13:00:00 21.3 0 Calma 5 Oeste 0 -- -- 75
2019-08-04 12:00:00 20.8 0 Calma 5 Oeste 0 -- -- 77
2019-08-04 11:00:00 20.1 2 Sur 6 Sur 0 -- -- 80
2019-08-04 10:00:00 19.6 3 Sudoeste 6 Oeste 0 -- -- 83
2019-08-04 09:00:00 19 2 Sudoeste 6 Sudoeste 0 -- -- 86
2019-08-04 08:00:00 18.6 0 Calma 5 Sur 0 -- -- 90
2019-08-04 07:00:00 18.3 0 Calma 5 Sudoeste 0 -- -- 91
2019-08-04 06:00:00 18.5 0 Calma 3 Sur 0 -- -- 90
2019-08-04 05:00:00 18.8 0 Calma -- -- 0 -- -- 88
2019-08-04 04:00:00 19.2 0 Calma 5 Sur 0 -- -- 86
2019-08-04 03:00:00 19.4 2 Sur 11 Sudeste 0 -- -- 86
2019-08-04 02:00:00 19.7 2 Sur 9 Sudeste 0 -- -- 87
2019-08-04 01:00:00 19.9 0 Calma 6 Sur 0 -- -- 85
2019-08-04 00:00:00 20.2 3 Sur 6 Sudoeste 0 -- -- 83
2019-08-03 23:00:00 20.4 3 Sudeste 13 Sur 0 -- -- 82
2019-08-03 22:00:00 20.9 0 Calma 15 Sudeste 0 -- -- 80
2019-08-03 21:00:00 22.1 3 Sudeste 18 Sur 0 -- -- 74
2019-08-03 20:00:00 24.6 3 Sudeste 14 Este 0 -- -- 66
2019-08-03 19:00:00 27.2 5 Este 16 Este 0 -- -- 60
2019-08-03 18:00:00 29.5 6 Sudeste 19 Sudeste 0 -- -- 55
2019-08-03 17:00:00 30.7 5 Sudeste 23 Sudeste 0 -- -- 54
2019-08-03 16:00:00 31.5 4 Este 15 Sudeste 0 -- -- 48
2019-08-03 15:00:00 30.6 3 Este 9 Sudoeste 0 -- -- 49
2019-08-03 14:00:00 29.2 3 Nordeste 8 Norte 0 -- -- 49
2019-08-03 13:00:00 26.7 2 Norte 7 Noroeste 0 -- -- 57
2019-08-03 12:00:00 24.2 2 Norte 5 Norte 0 -- -- 67
2019-08-03 11:00:00 20.7 2 Norte 6 Norte 0 -- -- 78
2019-08-03 10:00:00 16.7 3 Norte 5 Norte 0 -- -- 99
2019-08-03 09:00:00 13.8 0 Calma 4 Sudoeste 0 -- -- 99
2019-08-03 08:00:00 12.6 2 Sudoeste 5 Sudoeste 0 -- -- 97
2019-08-03 07:00:00 12.6 0 Calma 4 Sur 0 -- -- 96
2019-08-03 06:00:00 12.9 2 Sur 5 Sur 0 -- -- 96
2019-08-03 05:00:00 13.3 0 Calma 6 Sur 0 -- -- 95
2019-08-03 04:00:00 13.6 0 Calma 5 Sur 0 -- -- 95
2019-08-03 03:00:00 14.1 2 Sudoeste 6 Sur 0 -- -- 94
2019-08-03 02:00:00 14.6 0 Calma 5 Sudoeste 0 -- -- 93
2019-08-03 01:00:00 15.4 0 Calma 4 Sur 0 -- -- 91
2019-08-03 00:00:00 16.4 0 Calma 8 Sur 0 -- -- 88
2019-08-02 23:00:00 17.8 0 Calma 10 Sur 0 -- -- 84
2019-08-02 22:00:00 19.6 3 Sudoeste 9 Sudoeste 0 -- -- 79
2019-08-02 21:00:00 22 4 Sur 10 Sudeste 0 -- -- 67
2019-08-02 20:00:00 24.1 0 Calma 11 Sur 0 -- -- 64
2019-08-02 19:00:00 26.2 3 Sudeste 14 Este 0 -- -- 60
2019-08-02 18:00:00 27.3 4 Este 16 Sudeste 0 -- -- 57
2019-08-02 17:00:00 27.4 4 Este 14 Sudeste 0 -- -- 56
2019-08-02 16:00:00 26.7 4 Sudeste 15 Sudeste 0 -- -- 58
2019-08-02 15:00:00 25 5 Este 16 Sur 0 -- -- 61
2019-08-02 14:00:00 24.1 4 Sudeste 16 Sur 0 -- -- 63
2019-08-02 13:00:00 22.4 3 Sudeste 14 Sudeste 0 -- -- 74
2019-08-02 12:00:00 22.4 5 Sudeste 13 Este 0 -- -- 76
2019-08-02 11:00:00 19.9 4 Este 10 Sudeste 0 -- -- 84
2019-08-02 10:00:00 18 0 Calma -- -- 0.2 -- -- 98
2019-08-02 09:00:00 17 0 Calma -- -- 0 -- -- 98
2019-08-02 08:00:00 16.4 0 Calma 2 Sudoeste 0 -- -- 98
2019-08-02 07:00:00 16.3 0 Calma 6 Sur 0 -- -- 98
2019-08-02 06:00:00 16.4 3 Sur 9 Sur 0 -- -- 98
2019-08-02 05:00:00 16.6 0 Calma 2 Oeste 0 -- -- 98
2019-08-02 04:00:00 16.7 0 Calma 4 Sur 0 -- -- 98
2019-08-02 03:00:00 16.8 0 Calma 4 Noroeste 0 -- -- 98
2019-08-02 02:00:00 16.8 0 Calma 3 Noroeste 0.4 -- -- 97
2019-08-02 01:00:00 16.8 0 Calma 4 Noroeste 0 -- -- 97
2019-08-02 00:00:00 17 0 Calma 3 Noroeste 0 -- -- 97
2019-08-01 23:00:00 17.1 0 Calma 3 Sudeste 0.2 -- -- 96
2019-08-01 22:00:00 17.3 0 Calma 4 Sudoeste 0 -- -- 95
2019-08-01 21:00:00 17.5 0 Calma 5 Oeste 0 -- -- 94
2019-08-01 20:00:00 17.8 0 Calma 9 Sudeste 0 -- -- 92
2019-08-01 19:00:00 18.2 0 Calma 6 Sudoeste 0 -- -- 90
2019-08-01 18:00:00 18.3 0 Calma 8 Sudoeste 0 -- -- 89
2019-08-01 17:00:00 18.4 4 Oeste 8 Oeste 0 -- -- 89
2019-08-01 16:00:00 18.9 4 Este 15 Este 0 -- -- 86
2019-08-01 15:00:00 19.8 3 Este 9 Este 0 -- -- 83
2019-08-01 14:00:00 21.2 4 Noroeste 10 Norte 0 -- -- 78
2019-08-01 13:00:00 19.9 2 Norte 7 Norte 0 -- -- 83
2019-08-01 12:00:00 18.7 2 Noroeste 10 Sudoeste 0 -- -- 83
2019-08-01 11:00:00 17.8 3 Sudoeste 7 Oeste 0 -- -- 97
2019-08-01 10:00:00 16.6 0 Calma 5 Este 0 -- -- 98
2019-08-01 09:00:00 16.3 0 Calma 5 Este 0 -- -- 98
2019-08-01 08:00:00 16.1 0 Calma 5 Norte 0 -- -- 98
2019-08-01 07:00:00 16.1 0 Calma 23 Noroeste 0.4 -- -- 97
2019-08-01 06:00:00 16.2 4 Sudeste 21 Sudoeste 1.4 -- -- 96
2019-08-01 05:00:00 16.4 13 Sur 23 Sur 4.2 -- -- 94
2019-08-01 04:00:00 17 0 Calma 8 Sudoeste 0 -- -- 88
2019-08-01 03:00:00 17.3 3 Sur 7 Oeste 0 -- -- 85
2019-08-01 02:00:00 17.4 3 Sur 7 Sur 0 -- -- 83
2019-08-01 01:00:00 17.5 3 Sudoeste 6 Sur 0 -- -- 81
2019-08-01 00:00:00 17.7 0 Calma 7 Sur 0 -- -- 81
2019-07-31 23:00:00 18.1 3 Sur 8 Sudeste 0 -- -- 78
2019-07-31 22:00:00 18.6 5 Sur 16 Sur 0 -- -- 75
2019-07-31 21:00:00 19.4 2 Sur 10 Sudeste 0 -- -- 71
2019-07-31 20:00:00 19.8 5 Sudeste 13 Sudeste 0 -- -- 68
2019-07-31 19:00:00 20.8 4 Este 14 Sudeste 0 -- -- 66
2019-07-31 18:00:00 21.7 5 Sudeste 17 Sudeste 0 -- -- 63
2019-07-31 17:00:00 23.2 4 Este 14 Sudeste 0 -- -- 58
2019-07-31 16:00:00 22.5 4 Este 12 Sudeste 0 -- -- 59
2019-07-31 15:00:00 23.5 6 Sur 14 Sudeste 0 -- -- 58
2019-07-31 14:00:00 23 4 Sur 20 Nordeste 0 -- -- 56
2019-07-31 13:00:00 21.8 8 Este 22 Nordeste 0 -- -- 56
2019-07-31 12:00:00 20.5 6 Sudeste 18 Sur 0 -- -- 62
2019-07-31 11:00:00 17.4 5 Este 12 Este 0 -- -- 72
2019-07-31 10:00:00 13.9 3 Norte 5 Norte 0 -- -- 95
2019-07-31 09:00:00 10.9 0 Calma 4 Sudoeste 0 -- -- 98
2019-07-31 08:00:00 9.8 0 Calma 4 Sur 0 -- -- 97
2019-07-31 07:00:00 9.8 3 Sudoeste 6 Sudoeste 0 -- -- 96
2019-07-31 06:00:00 10.1 0 Calma 4 Sudoeste 0 -- -- 95
2019-07-31 05:00:00 10.7 2 Sur 5 Sur 0 -- -- 95
2019-07-31 04:00:00 11.2 2 Sur 6 Sur 0 -- -- 94
2019-07-31 03:00:00 11.6 3 Sudoeste 5 Sudoeste 0 -- -- 93
2019-07-31 02:00:00 12.3 2 Sur 6 Sur 0 -- -- 91
2019-07-31 01:00:00 13.2 2 Sur 7 Sur 0 -- -- 89
2019-07-31 00:00:00 14.4 3 Sur 7 Sudoeste 0 -- -- 86
2019-07-30 23:00:00 15.3 2 Sudoeste 8 Sudoeste 0 -- -- 81
2019-07-30 22:00:00 16.6 3 Sudoeste 10 Sudeste 0 -- -- 74
2019-07-30 21:00:00 17.6 2 Sudeste 10 Este 0 -- -- 68
2019-07-30 20:00:00 18.6 3 Noroeste 14 Noroeste 0 -- -- 66
2019-07-30 19:00:00 18.6 4 Este 23 Este 0 -- -- 68
2019-07-30 18:00:00 19.6 5 Sudeste 18 Sudeste 0 -- -- 64
2019-07-30 17:00:00 20.7 3 Nordeste 16 Nordeste 0 -- -- 61
2019-07-30 16:00:00 20.7 5 Sudeste 20 Sur 0 -- -- 57
2019-07-30 15:00:00 20.9 4 Sudeste 22 Este 0 -- -- 63
2019-07-30 14:00:00 20.1 4 Este 14 Oeste 0 -- -- 61
2019-07-30 13:00:00 19.6 3 Oeste 18 Norte 0 -- -- 61
2019-07-30 12:00:00 20.2 3 Norte 24 Norte 0 -- -- 61
2019-07-30 11:00:00 18.5 6 Nordeste 24 Noroeste 0 -- -- 66
2019-07-30 10:00:00 17.2 3 Sudoeste 10 Norte 0 -- -- 70
2019-07-30 09:00:00 14.5 5 Sudoeste 8 Sur 0 -- -- 95
2019-07-30 08:00:00 13.7 4 Sur 9 Sur 0 -- -- 96
2019-07-30 07:00:00 14.3 4 Sur 10 Sur 0 -- -- 97
2019-07-30 06:00:00 14.6 4 Sur 12 Sur 0 -- -- 97
2019-07-30 05:00:00 14.8 0 Calma 5 Sudoeste 0 -- -- 97
2019-07-30 04:00:00 14.9 3 Sur 8 Sur 0 -- -- 97
2019-07-30 03:00:00 15.1 2 Sur 7 Sudoeste 0 -- -- 96
2019-07-30 02:00:00 15.3 2 Sur 7 Sur 0 -- -- 96
2019-07-30 01:00:00 15.4 0 Calma 9 Sudoeste 0.2 -- -- 96
2019-07-30 00:00:00 15.8 2 Sudeste 8 Sudoeste 0 -- -- 96
2019-07-29 23:00:00 16.1 0 Calma 5 Sudoeste 0.8 -- -- 94
2019-07-29 22:00:00 16.4 0 Calma 7 Sur 0 -- -- 91
2019-07-29 21:00:00 17.2 3 Sudeste 17 Sur 0 -- -- 86
2019-07-29 20:00:00 18.5 4 Sudoeste 14 Sur 0 -- -- 73
2019-07-29 19:00:00 18.9 0 Calma 15 Este 0 -- -- 73
2019-07-29 18:00:00 19.2 3 Sur 13 Este 0 -- -- 74
2019-07-29 17:00:00 19.6 5 Sudeste 16 Sur 0 -- -- 73
2019-07-29 16:00:00 20.8 6 Sudeste 20 Sur 0 -- -- 70
2019-07-29 15:00:00 22.2 4 Sudoeste 17 Este 0 -- -- 66
2019-07-29 14:00:00 24.9 4 Este 18 Sur 0 -- -- 58
2019-07-29 13:00:00 25.4 7 Sudeste 26 Sudeste 0 -- -- 58
2019-07-29 12:00:00 24.9 4 Norte 10 Noroeste 0 -- -- 46
2019-07-29 11:00:00 21.7 5 Norte 10 Norte 0 -- -- 66
2019-07-29 10:00:00 17.4 0 Calma 10 Sur 0 -- -- 86
2019-07-29 09:00:00 13.7 2 Sudeste 8 Sudoeste 0 -- -- 99
2019-07-29 08:00:00 12.2 3 Sur 8 Sur 0 -- -- 98
2019-07-29 07:00:00 12.2 3 Sur 6 Sur 0 -- -- 97
2019-07-29 06:00:00 12.5 2 Sur 7 Sudoeste 0 -- -- 97
2019-07-29 05:00:00 12.9 3 Sur 6 Sur 0 -- -- 96
2019-07-29 04:00:00 13.2 2 Sudoeste 6 Sur 0 -- -- 96
2019-07-29 03:00:00 13.5 2 Sur 8 Sur 0 -- -- 95
2019-07-29 02:00:00 14 3 Sudoeste 6 Sudoeste 0 -- -- 94
2019-07-29 01:00:00 14.7 0 Calma 6 Sur 0 -- -- 92
2019-07-29 00:00:00 15.6 3 Sudoeste 8 Sur 0 -- -- 90
2019-07-28 23:00:00 16.9 3 Sudoeste 9 Sur 0 -- -- 86
2019-07-28 22:00:00 18.5 3 Sudoeste 10 Sur 0 -- -- 81
2019-07-28 21:00:00 20.9 2 Oeste 13 Sur 0 -- -- 69
2019-07-28 20:00:00 22.6 4 Este 14 Sudeste 0 -- -- 61
2019-07-28 19:00:00 24.8 4 Sudeste 16 Sudeste 0 -- -- 55
2019-07-28 18:00:00 25.4 4 Este 12 Sur 0 -- -- 52
2019-07-28 17:00:00 25.6 4 Este 16 Este 0 -- -- 49
2019-07-28 16:00:00 24.6 3 Este 19 Sudeste 0 -- -- 52
2019-07-28 15:00:00 23.4 4 Este 13 Sudeste 0 -- -- 60
2019-07-28 14:00:00 23.1 4 Sur 13 Sudeste 0 -- -- 61
2019-07-28 13:00:00 21.4 5 Sur 14 Sudeste 0 -- -- 71
2019-07-28 12:00:00 19.4 0 Calma 8 Norte 0 -- -- 70
2019-07-28 11:00:00 18.7 3 Noroeste 9 Este 0 -- -- 77
2019-07-28 10:00:00 16.2 2 Norte 5 Norte 0 -- -- 100
2019-07-28 09:00:00 14.3 3 Sur 5 Sur 0 -- -- 100
2019-07-28 08:00:00 14.1 0 Calma 5 Sudeste 0 -- -- 100
2019-07-28 07:00:00 13.7 0 Calma -- -- 0.2 -- -- 100
2019-07-28 06:00:00 13.6 0 Calma 3 Sudoeste 0 -- -- 100
2019-07-28 05:00:00 13.7 0 Calma 5 Sur 0 -- -- 99
2019-07-28 04:00:00 14.1 0 Calma -- -- 0 -- -- 99
2019-07-28 03:00:00 14.1 0 Calma 0 Calma 0.6 -- -- 99
2019-07-28 02:00:00 14 0 Calma 5 Oeste 0 -- -- 99
2019-07-28 01:00:00 13.9 0 Calma 5 Sur 0.2 -- -- 98
2019-07-28 00:00:00 13.8 0 Calma 5 Sudoeste 0 -- -- 97
2019-07-27 23:00:00 14.4 0 Calma 13 Norte 0.8 -- -- 97
2019-07-26 12:00:00 -- -- -- -- -- -- -- -- --
2019-07-26 11:00:00 17.9 3 Sudeste 10 Sudeste 0.4 -- -- 97
2019-07-26 10:00:00 17.6 0 Calma 9 Este 0.2 -- -- 97
2019-07-26 09:00:00 17.4 4 Noroeste 15 Nordeste 0.8 -- -- 97
2019-07-26 08:00:00 18.5 0 Calma 10 Noroeste 2.6 -- -- 98
2019-07-26 07:00:00 18.5 0 Calma 11 Norte 0.2 -- -- 98
2019-07-26 06:00:00 18.6 0 Calma 11 Sur 1.4 -- -- 98
2019-07-26 05:00:00 18.7 0 Calma 5 Sudoeste 0.2 -- -- 97
2019-07-26 04:00:00 18.8 0 Calma 7 Sudoeste 0.4 -- -- 97
2019-07-26 03:00:00 19 0 Calma -- -- -- -- -- 97
2019-07-26 02:00:00 19.1 0 Calma 2 Oeste 0.8 -- -- 96
2019-07-26 01:00:00 19.2 3 Oeste 8 Sur 0.6 -- -- 95
2019-07-26 00:00:00 19.6 2 Sur 12 Sudeste 0.2 -- -- 95
2019-07-25 23:00:00 20 2 Este 17 Norte 4.4 -- -- 95
2019-07-25 22:00:00 20.4 4 Sudoeste 9 Sur 1.8 -- -- 94
2019-07-25 21:00:00 20.6 3 Este 15 Norte 1.4 -- -- 92
2019-07-25 20:00:00 21.5 4 Este 15 Sur 2.8 -- -- 88
2019-07-25 19:00:00 22.8 4 Este 19 Sur 0 -- -- 81
2019-07-25 18:00:00 24.5 5 Sudeste 20 Sudeste 0 -- -- 74
2019-07-25 17:00:00 27.1 4 Este 22 Este 0 -- -- 64
2019-07-25 16:00:00 33 9 Este 24 Sudeste 0 -- -- 49
2019-07-25 15:00:00 37.6 6 Sur 27 Sudoeste 0 -- -- 35
2019-07-25 14:00:00 36.6 4 Oeste 23 Sudoeste 0 -- -- 30
2019-07-25 13:00:00 34.6 8 Noroeste 19 Noroeste 0 -- -- 33
2019-07-25 12:00:00 32.4 6 Sudoeste 14 Sudoeste 0 -- -- 36
2019-07-25 11:00:00 27.9 3 Noroeste 7 Sudoeste 0 -- -- 58
2019-07-25 10:00:00 22.1 2 Este 7 Sudoeste 0 -- -- 80
2019-07-25 09:00:00 18.9 2 Sudoeste 7 Oeste 0 -- -- 95
2019-07-25 08:00:00 18.3 0 Calma 6 Sudoeste 0 -- -- 94
2019-07-25 07:00:00 18.4 0 Calma 4 Sur 0 -- -- 94
2019-07-25 06:00:00 18.5 0 Calma 5 Sudeste 0 -- -- 93
2019-07-25 05:00:00 18.4 0 Calma 7 Sudoeste 0 -- -- 92
2019-07-25 04:00:00 18.9 0 Calma 8 Sur 0 -- -- 89
2019-07-25 03:00:00 19.1 0 Calma 6 Sudoeste 0 -- -- 84
2019-07-25 02:00:00 20 3 Sur 10 Oeste 0 -- -- 76
2019-07-25 01:00:00 21.1 2 Sur 10 Sudoeste 0 -- -- 70
2019-07-25 00:00:00 22.4 2 Sur 7 Oeste 0 -- -- 67
2019-07-24 23:00:00 25.2 0 Calma 7 Sudoeste 0 -- -- 55
2019-07-24 22:00:00 29.1 0 Calma 16 Noroeste 0 -- -- 46
2019-07-24 21:00:00 32.8 10 Noroeste 28 Sudoeste 0 -- -- 28
2019-07-24 20:00:00 30.2 9 Oeste 24 Oeste 0 -- -- 37
2019-07-24 19:00:00 32.4 5 Sudeste 26 Sur 0 -- -- 36
2019-07-24 18:00:00 34.8 8 Oeste 23 Norte 0 -- -- 33
2019-07-24 17:00:00 38.8 2 Noroeste 23 Sudoeste 0 -- -- 24
2019-07-24 16:00:00 39 5 Sur 20 Sur 0 -- -- 25
2019-07-24 15:00:00 37.6 7 Sudoeste 19 Sur 0 -- -- 25
2019-07-24 14:00:00 34.2 3 Nordeste 11 Norte 0 -- -- 42
2019-07-24 13:00:00 31.1 2 Norte 6 Noroeste 0 -- -- 56
2019-07-24 12:00:00 27.8 3 Norte 7 Norte 0 -- -- 64
2019-07-24 11:00:00 24.2 0 Calma 7 Norte 0 -- -- 73
2019-07-24 10:00:00 20.3 0 Calma 6 Norte 0 -- -- 99
2019-07-24 09:00:00 17.9 0 Calma 5 Sur 0 -- -- 98
2019-07-24 08:00:00 17.1 0 Calma 6 Sur 0 -- -- 97
2019-07-24 07:00:00 17.3 0 Calma 9 Sur 0 -- -- 97
2019-07-24 06:00:00 17.6 0 Calma 12 Sur 0 -- -- 97
2019-07-24 05:00:00 17.5 3 Norte 8 Sudoeste 0 -- -- 96
2019-07-24 04:00:00 18.3 0 Calma 8 Sudoeste 0 -- -- 95
2019-07-24 03:00:00 19 3 Sur 9 Sur 0 -- -- 96
2019-07-24 02:00:00 19.6 3 Sur 8 Sur 0 -- -- 96
2019-07-24 01:00:00 19.8 0 Calma 8 Sur 0 -- -- 95
2019-07-24 00:00:00 20 4 Sur 12 Sur 0 -- -- 95
2019-07-23 23:00:00 20.2 2 Noroeste 19 Sur 0 -- -- 94
2019-07-23 22:00:00 19.5 3 Oeste 15 Sudoeste 0.2 -- -- 94
2019-07-23 21:00:00 19.6 4 Este 23 Norte 0 -- -- 92
2019-07-23 20:00:00 20.3 3 Sudoeste 31 Sur 1.4 -- -- 87
2019-07-23 19:00:00 23.9 13 Sudoeste 42 Sudoeste 11 -- -- 70
2019-07-23 18:00:00 39.1 2 Nordeste 13 Sudoeste 0 -- -- 23
2019-07-23 17:00:00 40 3 Este 24 Sudoeste 0 -- -- 22
2019-07-23 16:00:00 39.7 7 Sudoeste 25 Sudoeste 0 -- -- 24
2019-07-23 15:00:00 38.6 8 Sudoeste 32 Sur 0 -- -- 23
2019-07-23 14:00:00 37 14 Sudoeste 30 Sudoeste 0 -- -- 25
2019-07-23 13:00:00 35.4 7 Sur 26 Sur 0 -- -- 28
2019-07-23 12:00:00 31.8 2 Sudeste 20 Sudoeste 0 -- -- 38
2019-07-23 11:00:00 29.8 9 Sudoeste 44 Sudoeste 0 -- -- 37
2019-07-23 10:00:00 27.3 8 Noroeste 49 Noroeste 0 -- -- 39
2019-07-23 09:00:00 19.8 2 Sudoeste 8 Oeste 0 -- -- 81
2019-07-23 08:00:00 17.8 3 Sur 11 Sudoeste 0 -- -- 90
2019-07-23 07:00:00 17.7 3 Sur 8 Sudoeste 0 -- -- 92
2019-07-23 06:00:00 18.1 3 Sudeste 11 Sudoeste 0 -- -- 92
2019-07-23 05:00:00 18.4 0 Calma 8 Sur 0 -- -- 93
2019-07-23 04:00:00 18.9 0 Calma 8 Sur 0 -- -- 93
2019-07-23 03:00:00 19.4 2 Sur 8 Sur 0 -- -- 92
2019-07-23 02:00:00 20.1 2 Sur 8 Sur 0 -- -- 90
2019-07-23 01:00:00 20.9 2 Sudeste 12 Sur 0 -- -- 88
2019-07-23 00:00:00 21.9 0 Calma 22 Norte 0 -- -- 84
2019-07-22 23:00:00 23.2 0 Calma -- -- 0 -- -- 81
2019-07-22 22:00:00 25.6 0 Calma 10 Sudeste 0 -- -- 72
2019-07-22 21:00:00 28.2 3 Sudeste 11 Sur 0 -- -- 62
2019-07-22 20:00:00 30.8 3 Sur 15 Sur 0 -- -- 56
2019-07-22 19:00:00 33.5 7 Sur 17 Sudeste 0 -- -- 49
2019-07-22 18:00:00 36.2 6 Sudeste 17 Sudeste 0 -- -- 42
2019-07-22 17:00:00 37 3 Este 15 Sur 0 -- -- 40
2019-07-22 16:00:00 36.1 4 Sudeste 13 Sudeste 0 -- -- 41
2019-07-22 15:00:00 34.8 5 Sur 12 Sudeste 0 -- -- 43
2019-07-22 14:00:00 32.2 4 Este 9 Noroeste 0 -- -- 51
2019-07-22 13:00:00 29.1 5 Oeste 11 Oeste 0 -- -- 56
2019-07-22 12:00:00 26 4 Sudoeste 10 Sudoeste 0 -- -- 65
2019-07-22 11:00:00 22.9 4 Oeste 10 Sudoeste 0 -- -- 73
2019-07-22 10:00:00 20.7 2 Norte 7 Noroeste 0 -- -- 84
2019-07-22 09:00:00 19.5 0 Calma -- -- 0 -- -- 91
2019-07-22 08:00:00 18.8 0 Calma -- -- 0 -- -- 94
2019-07-22 07:00:00 18.7 0 Calma -- -- 0 -- -- 93
2019-07-22 06:00:00 18.8 0 Calma -- -- 0 -- -- 93
2019-07-22 05:00:00 18.9 0 Calma 4 Sur 0 -- -- 92
2019-07-22 04:00:00 19 0 Calma -- -- 0 -- -- 92
2019-07-22 03:00:00 19 0 Calma 3 Sudoeste 0 -- -- 91
2019-07-22 02:00:00 19.1 0 Calma 6 Sudoeste 0 -- -- 91
2019-07-22 01:00:00 19.3 3 Sudoeste 8 Sur 0 -- -- 90
2019-07-22 00:00:00 19.5 0 Calma 4 Sur 0 -- -- 89
2019-07-21 23:00:00 19.7 4 Sur 7 Sur 0 -- -- 90
2019-07-21 22:00:00 20.3 0 Calma 6 Sur 0 -- -- 87
2019-07-21 21:00:00 20.8 3 Sur 17 Sudeste 0 -- -- 82
2019-07-21 20:00:00 21.8 5 Este 11 Este 0 -- -- 77
2019-07-21 19:00:00 22.3 0 Calma 14 Este 0 -- -- 78
2019-07-21 18:00:00 23 5 Este 13 Este 0 -- -- 76
2019-07-21 17:00:00 23.7 3 Este 17 Sudeste 0 -- -- 74
2019-07-21 16:00:00 23.4 3 Sur 10 Sudeste 0 -- -- 74
2019-07-21 15:00:00 21.9 0 Calma 11 Sudeste 0 -- -- 80
2019-07-21 14:00:00 21.5 0 Calma 10 Este 0 -- -- 81
2019-07-21 13:00:00 21.5 0 Calma 4 Nordeste 0 -- -- 81
2019-07-21 12:00:00 21.1 0 Calma 6 Este 0 -- -- 81
2019-07-21 11:00:00 21.3 0 Calma 3 Norte 0 -- -- 81
2019-07-21 10:00:00 20.1 0 Calma 4 Nordeste 0 -- -- 86
2019-07-21 09:00:00 19.3 0 Calma -- -- 0 -- -- 90
2019-07-21 08:00:00 18.6 0 Calma -- -- 0 -- -- 92
2019-07-21 07:00:00 18.4 0 Calma -- -- 0 -- -- 91
2019-07-21 06:00:00 18.5 0 Calma -- -- 0 -- -- 91
2019-07-21 05:00:00 18.6 0 Calma 5 Sur 0 -- -- 90
2019-07-21 04:00:00 18.6 0 Calma 5 Sur 0 -- -- 90
2019-07-21 03:00:00 18.7 0 Calma -- -- 0 -- -- 90
2019-07-21 02:00:00 19.1 0 Calma 9 Sudeste 0 -- -- 88
2019-07-21 01:00:00 19.4 2 Sur 9 Sur 0 -- -- 86
2019-07-21 00:00:00 19.4 2 Sur 8 Nordeste 0 -- -- 85
2019-07-20 23:00:00 19.9 2 Este 11 Este 0 -- -- 82
2019-07-20 22:00:00 20.4 4 Nordeste 11 Nordeste 0 -- -- 81
2019-07-20 21:00:00 21.2 0 Calma 12 Sudeste 0 -- -- 77
2019-07-20 20:00:00 21.5 3 Este 14 Este 0 -- -- 75
2019-07-20 19:00:00 22.3 2 Este 15 Sudeste 0 -- -- 71
2019-07-20 18:00:00 23.2 3 Sudeste 15 Este 0 -- -- 68
2019-07-20 17:00:00 24.7 4 Este 16 Nordeste 0 -- -- 63
2019-07-20 16:00:00 25.4 5 Sudeste 18 Sudeste 0 -- -- 60
2019-07-20 15:00:00 26 4 Sudeste 15 Sudeste 0 -- -- 58
2019-07-20 14:00:00 26.5 4 Sudoeste 14 Sudeste 0 -- -- 54
2019-07-20 13:00:00 25.8 4 Sudeste 16 Sudeste 0 -- -- 56
2019-07-20 12:00:00 24.3 3 Este 11 Este 0 -- -- 60
2019-07-20 11:00:00 21.7 3 Este 8 Sudeste 0 -- -- 72
2019-07-20 10:00:00 19.4 0 Calma -- -- 0 -- -- 84
2019-07-20 09:00:00 17 0 Calma -- -- 0 -- -- 95
2019-07-20 08:00:00 16.1 3 Sudoeste 6 Sudoeste 0 -- -- 94
2019-07-20 07:00:00 16.3 3 Sudoeste 9 Sudoeste 0 -- -- 94
2019-07-20 06:00:00 16.9 0 Calma 3 Sudoeste 0 -- -- 94
2019-07-20 05:00:00 16.5 0 Calma 5 Sudoeste 0 -- -- 93
2019-07-20 04:00:00 16.6 3 Sur 9 Sur 0 -- -- 91
2019-07-20 03:00:00 17.1 0 Calma 9 Sur 0 -- -- 89
2019-07-20 02:00:00 17.5 4 Sur 11 Sur 0 -- -- 87
2019-07-20 01:00:00 18.3 4 Sur 8 Sudoeste 0 -- -- 84
2019-07-20 00:00:00 19.5 0 Calma 8 Sudoeste 0 -- -- 80
2019-07-19 23:00:00 20.6 5 Sur 10 Sudoeste 0 -- -- 75
2019-07-19 22:00:00 22.4 0 Calma 6 Sudoeste 0 -- -- 68
2019-07-19 21:00:00 24.6 0 Calma 11 Sur 0 -- -- 60
2019-07-19 20:00:00 26.9 4 Este 18 Este 0 -- -- 53
2019-07-19 19:00:00 30.1 6 Este 18 Este 0 -- -- 46
2019-07-19 18:00:00 32.6 5 Este 19 Sur 0 -- -- 41
2019-07-19 17:00:00 34.1 7 Sudeste 20 Sudeste 0 -- -- 36
2019-07-19 16:00:00 34.2 5 Sudeste 14 Nordeste 0 -- -- 34
2019-07-19 15:00:00 32.6 3 Este 11 Sudeste 0 -- -- 38
2019-07-19 14:00:00 30.8 4 Sur 10 Sudeste 0 -- -- 40
2019-07-19 13:00:00 28 3 Este 6 Noroeste 0 -- -- 47
2019-07-19 12:00:00 25.1 3 Nordeste 8 Norte 0 -- -- 50
2019-07-19 11:00:00 21.5 0 Calma 4 Noroeste 0 -- -- 51
2019-07-19 10:00:00 17 0 Calma 4 Oeste 0 -- -- 82
2019-07-19 09:00:00 12.6 0 Calma 3 Oeste 0 -- -- 98
2019-07-19 08:00:00 11.2 0 Calma 4 Sur 0 -- -- 96
2019-07-19 07:00:00 11.1 0 Calma 5 Sudoeste 0 -- -- 95
2019-07-19 06:00:00 11.4 3 Sur 8 Sur 0 -- -- 94
2019-07-19 05:00:00 12 3 Sudoeste 6 Sur 0 -- -- 93
2019-07-19 04:00:00 12.6 3 Sur 9 Sur 0 -- -- 91
2019-07-19 03:00:00 13.4 2 Sur 8 Sur 0 -- -- 91
2019-07-19 02:00:00 14.2 2 Sur 6 Sudoeste 0 -- -- 90
2019-07-19 01:00:00 15.2 4 Sur 9 Sur 0 -- -- 88
2019-07-19 00:00:00 16.4 4 Sur 9 Sur 0 -- -- 85